Time;durP1;ratioP1;P1;durP2;ratioP2;P2;SDS_P1;SDS_P2;PMS_P1;PMS_P2;Temp;Humidity;BMP_temperature;BMP_pressure;BME280_temperature;BME280_humidity;BME280_pressure;Samples;Min_cycle;Max_cycle;Signal;HPM_P1;HPM_P2
2022/10/30 00:00:35;;;;;;;5.95;3.83;;;17.40;72.10;;;;;;5028596;28;20057;-70
2022/10/30 00:03:02;;;;;;;6.57;3.58;;;17.40;72.10;;;;;;5029266;28;20041;-70
2022/10/30 00:05:28;;;;;;;4.97;3.30;;;17.40;72.10;;;;;;5026652;28;20409;-69
2022/10/30 00:07:56;;;;;;;7.00;3.67;;;17.40;72.10;;;;;;5028350;28;20049;-70
2022/10/30 00:10:23;;;;;;;6.30;3.53;;;17.40;72.10;;;;;;5030681;28;20055;-70
2022/10/30 00:12:50;;;;;;;5.70;3.35;;;17.40;72.10;;;;;;5032230;28;20128;-70
2022/10/30 00:15:17;;;;;;;5.25;3.20;;;17.40;72.10;;;;;;5024628;28;20058;-70
2022/10/30 00:17:44;;;;;;;6.28;3.47;;;17.40;72.10;;;;;;5062285;28;20062;-69
2022/10/30 00:20:11;;;;;;;6.38;3.63;;;17.30;72.00;;;;;;5030529;28;20061;-69
2022/10/30 00:22:37;;;;;;;6.10;3.55;;;17.40;72.10;;;;;;5030557;28;20050;-70
2022/10/30 00:25:06;;;;;;;6.60;3.35;;;17.40;72.10;;;;;;5030023;28;20056;-70
2022/10/30 00:27:33;;;;;;;5.75;3.30;;;17.40;72.10;;;;;;5024748;28;20064;-69
2022/10/30 00:30:00;;;;;;;5.07;3.25;;;17.40;72.10;;;;;;5028552;28;20090;-70
2022/10/30 00:32:27;;;;;;;6.15;3.47;;;17.40;72.10;;;;;;5027645;28;20063;-70
2022/10/30 00:34:54;;;;;;;4.45;3.35;;;17.40;72.00;;;;;;5013394;28;20053;-70
2022/10/30 00:37:21;;;;;;;4.00;3.05;;;17.30;72.00;;;;;;5011109;28;20053;-70
2022/10/30 00:39:47;;;;;;;5.97;3.42;;;17.40;72.00;;;;;;5026106;28;20442;-69
2022/10/30 00:42:15;;;;;;;7.28;3.45;;;17.30;72.00;;;;;;5031619;28;20056;-69
2022/10/30 00:44:45;;;;;;;4.55;3.38;;;17.30;72.00;;;;;;5033333;28;20609;-70
2022/10/30 00:47:13;;;;;;;4.72;3.40;;;17.30;72.00;;;;;;5035913;28;20081;-70
2022/10/30 00:49:45;;;;;;;6.05;3.22;;;17.30;72.00;;;;;;5030772;28;20060;-70
2022/10/30 00:52:11;;;;;;;4.78;3.25;;;17.30;72.00;;;;;;5035636;28;20056;-70
2022/10/30 00:54:38;;;;;;;5.05;3.42;;;17.30;72.00;;;;;;5036108;28;20056;-70
2022/10/30 00:57:05;;;;;;;4.78;3.20;;;17.30;72.00;;;;;;5031190;28;20054;-70
2022/10/30 00:59:33;;;;;;;4.60;3.28;;;17.30;72.00;;;;;;5034852;28;20051;-70
2022/10/30 01:02:01;;;;;;;5.88;3.13;;;17.30;72.00;;;;;;5034494;28;20084;-70
2022/10/30 01:04:27;;;;;;;5.45;3.20;;;17.30;72.00;;;;;;5034062;28;20046;-70
2022/10/30 01:06:54;;;;;;;6.50;3.38;;;17.30;72.00;;;;;;5038571;28;20053;-70
2022/10/30 01:09:21;;;;;;;4.53;3.45;;;17.30;72.00;;;;;;5036107;28;20047;-70
2022/10/30 01:11:47;;;;;;;5.68;3.33;;;17.30;72.00;;;;;;5032960;28;20046;-70
2022/10/30 01:14:15;;;;;;;5.47;3.65;;;17.30;72.00;;;;;;5028236;28;20045;-70
2022/10/30 01:16:56;;;;;;;5.15;3.30;;;17.30;72.00;;;;;;5024055;28;20042;-70
2022/10/30 01:19:25;;;;;;;5.35;3.40;;;17.30;72.00;;;;;;5034773;28;20049;-71
2022/10/30 01:22:01;;;;;;;4.90;3.20;;;17.30;72.00;;;;;;5035531;28;20060;-71
2022/10/30 01:24:43;;;;;;;4.65;3.47;;;17.30;72.00;;;;;;5030263;28;20466;-71
2022/10/30 01:27:18;;;;;;;6.40;3.53;;;17.30;72.00;;;;;;5037476;28;20528;-71
2022/10/30 01:29:50;;;;;;;;;;;17.30;72.00;;;;;;5035799;28;20495;-71
2022/10/30 01:32:38;;;;;;;4.35;3.10;;;17.20;71.90;;;;;;5034347;28;19928;-71
2022/10/30 01:35:07;;;;;;;4.78;3.55;;;17.20;72.70;;;;;;5030060;28;20050;-71
2022/10/30 01:37:36;;;;;;;8.63;3.50;;;17.20;72.10;;;;;;5036555;28;20057;-71
2022/10/30 01:40:08;;;;;;;6.97;3.30;;;17.20;72.10;;;;;;5029538;28;20042;-70
2022/10/30 01:42:51;;;;;;;4.75;3.20;;;17.20;72.00;;;;;;5035512;28;20053;-71
2022/10/30 01:45:24;;;;;;;4.07;3.35;;;17.30;72.00;;;;;;5033675;28;20046;-72
2022/10/30 01:48:11;;;;;;;5.88;3.50;;;17.20;72.00;;;;;;5029399;28;20109;-72
2022/10/30 01:50:40;;;;;;;4.70;3.50;;;17.30;72.00;;;;;;5029897;28;20056;-71
2022/10/30 01:53:11;;;;;;;4.05;3.35;;;17.20;72.00;;;;;;5031557;28;20065;-71
2022/10/30 01:55:42;;;;;;;5.18;3.40;;;17.20;72.00;;;;;;5034459;28;20053;-71
2022/10/30 01:58:13;;;;;;;5.63;3.15;;;17.20;72.00;;;;;;5034318;28;20053;-71
2022/10/30 02:00:40;;;;;;;4.78;3.38;;;17.20;72.00;;;;;;5031840;28;20513;-71
2022/10/30 02:03:08;;;;;;;4.35;3.30;;;17.20;72.00;;;;;;5032889;28;20052;-71
2022/10/30 02:05:37;;;;;;;5.25;3.50;;;17.20;71.90;;;;;;5034429;28;20072;-71
2022/10/30 02:08:04;;;;;;;5.28;3.25;;;17.20;71.90;;;;;;5033772;28;20045;-71
2022/10/30 02:10:31;;;;;;;5.55;3.35;;;17.20;71.90;;;;;;5032808;28;20049;-71
2022/10/30 02:12:57;;;;;;;4.28;3.05;;;17.20;71.90;;;;;;5027147;28;20063;-71
2022/10/30 02:15:24;;;;;;;5.88;3.80;;;17.20;71.90;;;;;;5034629;28;20418;-71
2022/10/30 02:17:51;;;;;;;6.03;3.75;;;17.20;71.90;;;;;;5034588;28;20147;-71
2022/10/30 02:20:19;;;;;;;4.18;3.25;;;17.20;71.90;;;;;;5033293;28;20052;-71
2022/10/30 02:22:46;;;;;;;5.50;3.20;;;17.20;71.90;;;;;;5030675;28;20072;-71
2022/10/30 02:25:12;;;;;;;4.57;3.17;;;17.20;71.90;;;;;;5034314;28;20056;-71
2022/10/30 02:27:39;;;;;;;4.68;3.40;;;17.20;71.90;;;;;;5028542;28;20054;-71
2022/10/30 02:30:07;;;;;;;4.68;3.33;;;17.20;71.90;;;;;;5030352;28;20049;-71
2022/10/30 02:32:34;;;;;;;4.72;3.22;;;17.20;71.90;;;;;;5030681;28;20048;-71
2022/10/30 02:35:00;;;;;;;4.20;3.20;;;17.20;71.90;;;;;;5032303;28;20491;-71
2022/10/30 02:37:29;;;;;;;4.53;3.30;;;17.20;71.90;;;;;;5029313;28;20049;-72
2022/10/30 02:39:56;;;;;;;5.10;3.38;;;17.20;71.90;;;;;;5033729;28;20057;-72
2022/10/30 02:42:23;;;;;;;5.25;3.50;;;17.20;71.90;;;;;;5032225;28;20659;-72
2022/10/30 02:44:49;;;;;;;5.05;3.25;;;17.10;71.80;;;;;;5024964;28;20041;-72
2022/10/30 02:47:16;;;;;;;6.10;3.70;;;17.20;71.90;;;;;;5032663;28;20057;-71
2022/10/30 02:49:43;;;;;;;4.97;3.72;;;17.10;71.80;;;;;;5033901;28;20056;-71
2022/10/30 02:52:09;;;;;;;5.97;3.35;;;17.20;71.90;;;;;;5030647;28;20041;-71
2022/10/30 02:54:37;;;;;;;5.72;3.70;;;17.10;71.80;;;;;;5030780;28;20041;-71
2022/10/30 02:57:04;;;;;;;4.45;3.20;;;17.10;71.80;;;;;;5031804;28;20060;-71
2022/10/30 02:59:31;;;;;;;4.47;3.50;;;17.20;71.80;;;;;;5033027;28;20491;-71
2022/10/30 03:01:57;;;;;;;4.50;3.55;;;17.20;71.90;;;;;;5054002;28;20072;-71
2022/10/30 03:04:24;;;;;;;5.18;3.60;;;17.10;71.80;;;;;;5022483;28;20050;-71
2022/10/30 03:06:51;;;;;;;8.10;3.55;;;17.20;71.80;;;;;;5025803;28;20053;-71
2022/10/30 03:09:17;;;;;;;7.47;3.42;;;17.10;71.80;;;;;;5029311;28;20534;-71
2022/10/30 03:11:46;;;;;;;6.95;3.80;;;17.10;71.80;;;;;;5032524;28;20045;-71
2022/10/30 03:14:12;;;;;;;5.53;3.88;;;17.20;71.80;;;;;;5027843;28;20049;-71
2022/10/30 03:16:39;;;;;;;3.95;3.10;;;17.10;71.80;;;;;;5032074;28;20055;-71
2022/10/30 03:19:06;;;;;;;4.85;3.17;;;17.10;71.80;;;;;;5030446;28;20068;-71
2022/10/30 03:21:33;;;;;;;5.32;3.58;;;17.10;71.80;;;;;;5033154;28;20121;-71
2022/10/30 03:23:59;;;;;;;5.60;3.80;;;17.10;71.80;;;;;;5028433;28;20049;-71
2022/10/30 03:26:26;;;;;;;4.63;3.25;;;17.10;71.80;;;;;;5032930;28;20049;-71
2022/10/30 03:28:54;;;;;;;5.78;3.75;;;17.10;71.80;;;;;;5029289;28;20065;-71
2022/10/30 03:31:21;;;;;;;4.45;3.10;;;17.10;71.80;;;;;;5032876;28;20050;-71
2022/10/30 03:33:47;;;;;;;5.18;3.13;;;17.10;71.80;;;;;;5028397;28;20049;-72
2022/10/30 03:36:14;;;;;;;5.32;3.28;;;17.10;71.80;;;;;;5030864;28;20497;-72
2022/10/30 03:38:41;;;;;;;3.95;3.15;;;17.10;71.80;;;;;;5031270;28;20045;-72
2022/10/30 03:41:08;;;;;;;5.07;3.38;;;17.10;71.90;;;;;;5031690;28;20055;-72
2022/10/30 03:43:34;;;;;;;6.63;3.15;;;17.10;71.80;;;;;;5028537;28;20520;-72
2022/10/30 03:46:02;;;;;;;4.57;3.40;;;17.10;71.80;;;;;;5026858;28;20049;-72
2022/10/30 03:48:29;;;;;;;4.88;3.50;;;17.10;71.80;;;;;;5027692;28;20057;-72
2022/10/30 03:50:57;;;;;;;4.85;3.33;;;17.10;71.70;;;;;;5024660;28;20053;-72
2022/10/30 03:53:25;;;;;;;5.82;3.63;;;17.10;71.80;;;;;;5025321;28;20056;-71
2022/10/30 03:55:51;;;;;;;5.18;3.45;;;17.10;71.80;;;;;;5063663;28;20446;-71
2022/10/30 03:58:18;;;;;;;4.95;3.63;;;17.10;71.80;;;;;;5033135;28;20059;-71
2022/10/30 04:00:45;;;;;;;4.78;3.35;;;17.10;71.70;;;;;;5026826;28;20058;-71
2022/10/30 04:03:13;;;;;;;6.07;3.40;;;17.10;71.80;;;;;;5028594;28;20061;-71
2022/10/30 04:05:40;;;;;;;5.80;3.83;;;17.10;71.80;;;;;;5028425;28;20064;-71
2022/10/30 04:08:09;;;;;;;5.47;3.42;;;17.00;71.70;;;;;;5031530;28;20052;-71
2022/10/30 04:10:35;;;;;;;4.43;3.40;;;17.10;71.70;;;;;;5030099;28;20533;-71
2022/10/30 04:13:03;;;;;;;7.30;3.55;;;17.10;71.70;;;;;;5028134;28;20053;-71
2022/10/30 04:15:30;;;;;;;4.53;3.25;;;17.10;71.80;;;;;;5032168;28;20517;-71
2022/10/30 04:17:57;;;;;;;4.03;3.20;;;17.00;71.70;;;;;;5032163;28;20049;-71
2022/10/30 04:20:25;;;;;;;4.85;3.17;;;17.00;71.70;;;;;;5031691;28;20395;-71
2022/10/30 04:22:55;;;;;;;4.15;3.15;;;17.00;71.70;;;;;;5027704;28;20088;-71
2022/10/30 04:25:22;;;;;;;5.03;3.47;;;17.00;71.70;;;;;;5029321;28;20049;-71
2022/10/30 04:27:49;;;;;;;4.20;3.13;;;17.00;71.70;;;;;;5027613;28;20124;-71
2022/10/30 04:30:16;;;;;;;5.47;3.38;;;17.10;71.70;;;;;;5030805;28;20120;-71
2022/10/30 04:32:46;;;;;;;6.47;3.30;;;17.10;71.70;;;;;;5028508;28;20045;-71
2022/10/30 04:35:13;;;;;;;8.43;3.67;;;17.00;71.70;;;;;;5030080;28;20486;-72
2022/10/30 04:37:41;;;;;;;6.68;3.78;;;17.00;71.70;;;;;;5029462;28;20064;-72
2022/10/30 04:40:09;;;;;;;5.07;3.40;;;17.00;71.70;;;;;;5023583;28;20503;-72
2022/10/30 04:42:35;;;;;;;5.85;3.40;;;17.00;71.70;;;;;;5027844;28;20067;-72
2022/10/30 04:45:02;;;;;;;4.45;3.20;;;17.00;71.70;;;;;;5031998;28;20409;-72
2022/10/30 04:47:29;;;;;;;4.88;3.50;;;17.00;71.70;;;;;;5031999;28;20089;-72
2022/10/30 04:49:56;;;;;;;6.10;3.35;;;17.00;71.70;;;;;;5030524;28;20049;-72
2022/10/30 04:52:22;;;;;;;5.05;3.33;;;17.00;71.70;;;;;;5022588;28;20052;-72
2022/10/30 04:54:50;;;;;;;5.05;3.35;;;17.00;71.70;;;;;;5027273;28;20414;-72
2022/10/30 04:57:17;;;;;;;5.65;3.25;;;17.00;71.70;;;;;;5030907;28;20067;-72
2022/10/30 04:59:44;;;;;;;4.45;3.10;;;17.00;71.70;;;;;;5022596;28;20052;-72
2022/10/30 05:02:10;;;;;;;6.18;3.30;;;17.00;71.70;;;;;;5031567;28;20414;-72
2022/10/30 05:04:37;;;;;;;4.43;3.35;;;17.00;71.70;;;;;;5026369;28;20065;-71
2022/10/30 05:07:04;;;;;;;6.30;3.40;;;16.50;72.20;;;;;;5030302;28;20435;-71
2022/10/30 05:09:30;;;;;;;4.85;3.30;;;17.40;70.10;;;;;;5024085;28;20053;-70
2022/10/30 05:11:58;;;;;;;4.55;3.20;;;17.30;70.80;;;;;;5024534;28;20057;-70
2022/10/30 05:14:29;;;;;;;4.30;3.22;;;17.20;71.20;;;;;;5022034;28;20685;-71
2022/10/30 05:16:55;;;;;;;5.65;3.47;;;17.10;71.30;;;;;;5029685;28;20060;-72
2022/10/30 05:19:22;;;;;;;4.75;3.60;;;17.10;71.40;;;;;;5027614;28;20062;-72
2022/10/30 05:21:49;;;;;;;3.83;3.33;;;17.00;71.40;;;;;;5062465;28;20064;-72
2022/10/30 05:24:16;;;;;;;4.32;3.50;;;17.00;71.40;;;;;;5032805;28;20075;-71
2022/10/30 05:26:42;;;;;;;5.45;3.67;;;17.00;71.50;;;;;;5033611;28;20061;-71
2022/10/30 05:29:10;;;;;;;5.05;3.65;;;17.00;71.50;;;;;;5025359;28;20498;-71
2022/10/30 05:31:37;;;;;;;5.20;3.60;;;17.00;71.50;;;;;;5030736;28;20054;-72
2022/10/30 05:34:04;;;;;;;5.28;3.22;;;17.00;71.50;;;;;;5025931;28;20046;-72
2022/10/30 05:36:30;;;;;;;5.78;3.33;;;17.00;71.60;;;;;;5034060;28;20053;-71
2022/10/30 05:38:57;;;;;;;5.53;3.30;;;17.00;71.60;;;;;;5034189;28;20524;-72
2022/10/30 05:41:24;;;;;;;6.05;3.22;;;17.00;71.60;;;;;;5029552;28;20052;-71
2022/10/30 05:43:51;;;;;;;4.30;3.30;;;17.00;71.60;;;;;;5024843;28;20060;-71
2022/10/30 05:46:19;;;;;;;4.28;3.22;;;17.00;71.60;;;;;;5032682;28;20045;-71
2022/10/30 05:48:45;;;;;;;4.25;3.30;;;17.00;71.60;;;;;;5032200;28;20061;-72
2022/10/30 05:51:12;;;;;;;5.25;3.70;;;16.90;73.60;;;;;;5028697;28;20057;-72
2022/10/30 05:53:39;;;;;;;5.20;3.28;;;17.00;71.60;;;;;;5032517;28;20477;-71
2022/10/30 05:56:06;;;;;;;3.92;3.13;;;17.00;71.60;;;;;;5028722;28;20054;-72
2022/10/30 05:58:33;;;;;;;5.72;3.47;;;17.00;71.60;;;;;;5015018;28;20060;-71
2022/10/30 06:00:59;;;;;;;5.60;3.35;;;16.90;71.60;;;;;;5024899;28;20096;-72
2022/10/30 06:03:27;;;;;;;5.85;3.63;;;16.90;71.60;;;;;;5031362;28;20053;-72
2022/10/30 06:05:54;;;;;;;5.38;3.55;;;16.90;71.60;;;;;;5034304;28;20053;-72
2022/10/30 06:08:21;;;;;;;6.05;3.50;;;16.90;71.60;;;;;;5033583;28;20516;-71
2022/10/30 06:10:47;;;;;;;4.70;3.50;;;16.90;71.60;;;;;;5029663;28;20076;-71
2022/10/30 06:13:14;;;;;;;5.63;3.45;;;16.90;71.60;;;;;;5026854;28;20049;-72
2022/10/30 06:15:41;;;;;;;4.28;3.35;;;16.90;71.60;;;;;;5025522;28;20052;-72
2022/10/30 06:18:07;;;;;;;5.97;3.55;;;16.90;71.60;;;;;;5034283;28;20049;-72
2022/10/30 06:20:35;;;;;;;4.07;3.20;;;16.90;71.60;;;;;;5029106;28;20578;-72
2022/10/30 06:23:03;;;;;;;6.43;3.60;;;16.90;71.60;;;;;;5032335;28;20060;-72
2022/10/30 06:25:31;;;;;;;5.65;3.75;;;16.90;71.60;;;;;;5028433;28;20049;-71
2022/10/30 06:27:58;;;;;;;4.93;3.40;;;16.90;71.60;;;;;;5041387;28;20060;-72
2022/10/30 06:30:26;;;;;;;6.47;3.45;;;16.90;71.60;;;;;;5032174;28;20060;-71
2022/10/30 06:32:56;;;;;;;4.32;2.97;;;16.90;71.60;;;;;;5032669;28;20055;-72
2022/10/30 06:35:23;;;;;;;6.25;3.22;;;16.90;71.60;;;;;;5028954;28;20072;-72
2022/10/30 06:37:52;;;;;;;4.50;3.38;;;16.90;71.60;;;;;;5032767;28;20064;-72
2022/10/30 06:40:19;;;;;;;4.18;3.38;;;16.90;71.60;;;;;;5027159;28;20483;-71
2022/10/30 06:42:46;;;;;;;5.35;3.53;;;16.90;71.60;;;;;;5029166;28;20498;-71
2022/10/30 06:45:12;;;;;;;6.32;3.80;;;16.90;71.60;;;;;;5031138;28;20055;-71
2022/10/30 06:47:39;;;;;;;6.43;3.72;;;16.90;71.60;;;;;;5033131;28;20089;-71
2022/10/30 06:50:07;;;;;;;5.10;3.40;;;16.90;71.60;;;;;;5028260;28;21867;-71
2022/10/30 06:52:34;;;;;;;5.10;3.47;;;16.90;71.60;;;;;;5047601;28;20049;-71
2022/10/30 06:55:02;;;;;;;3.90;3.50;;;16.90;71.60;;;;;;5031697;28;20045;-72
2022/10/30 06:57:29;;;;;;;5.63;3.47;;;16.90;71.60;;;;;;5031700;28;20038;-72
2022/10/30 06:59:55;;;;;;;4.80;3.55;;;17.10;71.70;;;;;;5030161;28;20052;-70
2022/10/30 07:02:22;;;;;;;6.50;3.55;;;16.90;72.20;;;;;;5028203;28;20132;-71
2022/10/30 07:04:49;;;;;;;6.63;3.80;;;16.90;71.60;;;;;;5020162;28;20137;-71
2022/10/30 07:07:16;;;;;;;5.03;3.40;;;16.90;71.60;;;;;;5033358;28;20055;-71
2022/10/30 07:09:42;;;;;;;5.05;3.50;;;16.90;71.60;;;;;;5020053;28;20140;-74
2022/10/30 07:12:10;;;;;;;8.75;3.65;;;16.90;71.60;;;;;;5026916;28;20144;-73
2022/10/30 07:14:37;;;;;;;7.78;4.40;;;16.90;71.60;;;;;;5031899;28;20041;-73
2022/10/30 07:17:04;;;;;;;4.80;3.35;;;16.90;71.60;;;;;;5035206;28;20576;-72
2022/10/30 07:19:31;;;;;;;6.05;3.40;;;16.90;71.70;;;;;;5022615;28;20056;-72
2022/10/30 07:21:57;;;;;;;5.82;3.30;;;16.90;71.80;;;;;;5021472;28;20059;-72
2022/10/30 07:24:24;;;;;;;4.43;3.30;;;16.90;72.00;;;;;;5029427;28;20060;-72
2022/10/30 07:26:51;;;;;;;5.57;3.75;;;16.90;72.20;;;;;;5024922;28;20049;-72
2022/10/30 07:29:19;;;;;;;4.97;3.22;;;16.90;72.30;;;;;;5028106;28;20076;-73
2022/10/30 07:31:46;;;;;;;5.00;3.63;;;16.90;72.50;;;;;;5031271;28;20053;-73
2022/10/30 07:34:13;;;;;;;5.10;3.92;;;16.90;72.50;;;;;;5028964;28;20140;-72
2022/10/30 07:36:39;;;;;;;5.53;3.60;;;16.90;72.50;;;;;;5029327;28;20079;-72
2022/10/30 07:39:06;;;;;;;4.95;3.38;;;17.00;72.50;;;;;;5025064;28;20060;-71
2022/10/30 07:41:33;;;;;;;8.90;3.67;;;17.00;72.50;;;;;;5027256;28;20054;-71
2022/10/30 07:43:59;;;;;;;6.25;3.60;;;17.00;72.40;;;;;;5024782;28;20053;-72
2022/10/30 07:46:27;;;;;;;7.50;3.65;;;17.00;72.30;;;;;;5026375;28;20406;-72
2022/10/30 07:48:55;;;;;;;9.80;3.88;;;17.10;72.30;;;;;;5024658;28;20049;-72
2022/10/30 07:51:22;;;;;;;5.70;3.30;;;17.10;72.20;;;;;;5027727;28;20049;-69
2022/10/30 07:53:49;;;;;;;8.55;3.80;;;17.20;72.20;;;;;;5017615;28;20041;-72
2022/10/30 07:56:15;;;;;;;6.15;3.15;;;17.20;72.10;;;;;;5029240;28;20056;-72
2022/10/30 07:58:42;;;;;;;5.82;3.10;;;17.20;72.10;;;;;;5036830;28;20579;-72
2022/10/30 08:01:09;;;;;;;5.10;3.38;;;17.30;72.00;;;;;;5031796;28;20494;-72
2022/10/30 08:03:37;;;;;;;4.88;3.00;;;17.30;72.00;;;;;;5026343;28;20049;-72
2022/10/30 08:06:04;;;;;;;5.18;3.40;;;17.30;71.90;;;;;;5027308;28;20414;-72
2022/10/30 08:08:31;;;;;;;7.45;3.15;;;17.30;71.90;;;;;;5021326;28;20083;-72
2022/10/30 08:10:58;;;;;;;4.15;3.22;;;17.40;71.80;;;;;;5027367;28;20053;-71
2022/10/30 08:13:24;;;;;;;6.00;3.67;;;17.40;71.80;;;;;;5031430;28;20067;-72
2022/10/30 08:15:51;;;;;;;4.70;3.28;;;17.40;71.70;;;;;;5030271;28;20052;-72
2022/10/30 08:18:18;;;;;;;5.63;3.42;;;17.40;71.60;;;;;;5028213;28;20051;-72
2022/10/30 08:20:49;;;;;;;5.07;3.15;;;17.50;73.60;;;;;;5030511;28;20409;-72
2022/10/30 08:23:18;;;;;;;5.20;2.85;;;17.50;71.60;;;;;;5032099;28;20041;-72
2022/10/30 08:25:45;;;;;;;7.90;4.00;;;17.60;71.60;;;;;;5029463;28;20133;-71
2022/10/30 08:28:13;;;;;;;4.15;3.05;;;17.60;71.50;;;;;;5038878;28;20387;-71
2022/10/30 08:30:39;;;;;;;5.53;3.33;;;17.60;71.50;;;;;;5039390;28;20041;-71
2022/10/30 08:33:07;;;;;;;5.80;3.72;;;17.60;71.40;;;;;;5037750;28;20077;-71
2022/10/30 08:35:34;;;;;;;4.75;3.03;;;17.60;71.40;;;;;;5034391;28;20403;-71
2022/10/30 08:38:02;;;;;;;5.10;2.95;;;17.60;71.30;;;;;;5012320;28;20053;-71
2022/10/30 08:40:29;;;;;;;5.43;3.72;;;17.70;71.40;;;;;;5021166;28;20103;-72
2022/10/30 08:42:57;;;;;;;5.60;3.33;;;17.70;71.40;;;;;;5015214;28;20057;-71
2022/10/30 08:45:24;;;;;;;6.63;3.40;;;17.70;71.40;;;;;;5028474;28;20053;-73
2022/10/30 08:47:56;;;;;;;6.43;3.30;;;17.70;71.40;;;;;;5032356;28;20049;-72
2022/10/30 08:50:23;;;;;;;5.10;3.10;;;17.70;71.30;;;;;;5022184;28;20060;-72
2022/10/30 08:52:49;;;;;;;4.68;3.03;;;17.80;71.50;;;;;;5025271;28;20051;-72
2022/10/30 08:55:18;;;;;;;4.97;3.47;;;17.80;71.70;;;;;;5033908;28;20511;-72
2022/10/30 08:57:46;;;;;;;4.60;3.10;;;17.80;71.60;;;;;;5023972;28;20060;-71
2022/10/30 09:00:13;;;;;;;4.10;3.03;;;17.80;71.60;;;;;;5027936;28;20057;-71
2022/10/30 09:02:40;;;;;;;8.88;3.10;;;17.90;71.60;;;;;;5027324;28;20735;-72
2022/10/30 09:05:07;;;;;;;6.45;3.67;;;17.90;71.50;;;;;;5031413;28;20055;-72
2022/10/30 09:07:34;;;;;;;5.47;2.95;;;17.90;71.50;;;;;;5035649;28;20087;-72
2022/10/30 09:10:01;;;;;;;4.90;3.17;;;17.90;71.50;;;;;;5035155;28;20073;-73
2022/10/30 09:12:29;;;;;;;7.05;3.30;;;17.90;71.40;;;;;;5034562;28;20417;-72
2022/10/30 09:14:56;;;;;;;6.20;3.42;;;17.90;71.50;;;;;;5030473;28;20075;-71
2022/10/30 09:17:22;;;;;;;6.22;3.67;;;17.90;71.70;;;;;;5031427;28;20445;-71
2022/10/30 09:19:49;;;;;;;9.70;3.53;;;17.90;71.90;;;;;;5034459;28;20042;-71
2022/10/30 09:22:16;;;;;;;6.50;3.00;;;17.90;72.10;;;;;;5024862;28;20057;-72
2022/10/30 09:24:42;;;;;;;9.85;3.60;;;17.90;72.20;;;;;;5037135;28;20049;-73
2022/10/30 09:27:09;;;;;;;9.48;4.25;;;17.90;72.40;;;;;;5024785;28;20124;-72
2022/10/30 09:29:37;;;;;;;7.80;3.47;;;17.90;72.60;;;;;;5033844;28;20050;-73
2022/10/30 09:32:07;;;;;;;8.05;3.63;;;17.90;72.60;;;;;;5035225;28;20053;-73
2022/10/30 09:34:34;;;;;;;9.55;3.80;;;17.80;72.50;;;;;;5037091;28;20049;-73
2022/10/30 09:37:01;;;;;;;8.52;3.97;;;17.80;72.60;;;;;;5031829;28;20418;-74
2022/10/30 09:39:28;;;;;;;11.13;3.60;;;17.80;72.60;;;;;;5035818;28;20052;-73
2022/10/30 09:42:17;;;;;;;9.93;3.65;;;17.80;72.50;;;;;;5034890;28;20076;-73
2022/10/30 09:44:50;;;;;;;9.02;3.72;;;17.80;72.40;;;;;;5017846;28;20406;-73
2022/10/30 09:47:22;;;;;;;10.25;3.70;;;17.80;72.40;;;;;;5028237;28;20053;-73
2022/10/30 09:49:57;;;;;;;7.50;3.67;;;17.80;72.40;;;;;;5026976;28;20049;-73
2022/10/30 09:52:28;;;;;;;7.18;3.33;;;17.80;72.30;;;;;;5032616;28;20063;-73
2022/10/30 09:55:04;;;;;;;6.25;3.78;;;17.80;72.30;;;;;;5031200;28;20091;-74
2022/10/30 09:57:35;;;;;;;8.43;3.58;;;17.80;72.40;;;;;;5015297;28;20502;-73
2022/10/30 10:00:07;;;;;;;7.57;3.58;;;17.80;72.30;;;;;;5032877;28;20065;-73
2022/10/30 10:02:35;;;;;;;8.90;3.70;;;17.80;72.40;;;;;;5026295;28;20497;-72
2022/10/30 10:05:05;;;;;;;11.68;4.43;;;17.70;72.30;;;;;;5034869;28;20053;-73
2022/10/30 10:07:33;;;;;;;6.22;3.38;;;17.70;72.40;;;;;;5032368;28;20060;-73
2022/10/30 10:10:01;;;;;;;13.63;4.10;;;17.70;72.40;;;;;;5033831;28;20058;-74
2022/10/30 10:12:29;;;;;;;9.10;3.75;;;17.70;72.50;;;;;;5024755;28;20054;-74
2022/10/30 10:14:56;;;;;;;5.60;3.78;;;17.70;72.50;;;;;;5035949;28;20049;-74
2022/10/30 10:17:28;;;;;;;9.63;4.00;;;17.70;72.50;;;;;;5032479;28;20501;-73
2022/10/30 10:19:58;;;;;;;7.63;3.88;;;17.70;72.50;;;;;;5032246;28;20061;-71
2022/10/30 10:22:26;;;;;;;6.25;3.67;;;17.70;72.50;;;;;;5034412;28;20045;-73
2022/10/30 10:24:53;;;;;;;5.22;3.33;;;17.70;72.50;;;;;;5035277;28;20057;-74
2022/10/30 10:27:24;;;;;;;8.60;3.58;;;17.70;72.50;;;;;;5027252;28;20049;-73
2022/10/30 10:29:56;;;;;;;9.63;3.80;;;17.70;72.50;;;;;;5031596;28;20045;-74
2022/10/30 10:32:44;;;;;;;7.10;3.53;;;17.70;72.50;;;;;;5029889;28;20061;-73
2022/10/30 10:35:53;;;;;;;7.70;3.90;;;17.70;72.40;;;;;;5057328;28;20145;-73
2022/10/30 10:38:28;;;;;;;5.68;3.42;;;17.70;72.40;;;;;;4984804;28;20050;-73
2022/10/30 10:40:58;;;;;;;8.48;4.10;;;17.70;72.60;;;;;;5024343;28;20053;-72
2022/10/30 10:43:31;;;;;;;10.45;4.28;;;17.60;72.70;;;;;;5035875;28;20143;-72
2022/10/30 10:46:06;;;;;;;10.25;4.38;;;17.60;72.70;;;;;;5028372;28;20037;-72
2022/10/30 10:48:47;;;;;;;11.02;4.63;;;17.70;72.80;;;;;;5023604;28;20467;-73
2022/10/30 10:51:15;;;;;;;13.07;4.00;;;17.70;72.80;;;;;;5030186;28;20068;-73
2022/10/30 10:53:43;;;;;;;8.88;4.00;;;17.70;72.80;;;;;;5023206;28;20049;-73
2022/10/30 10:56:10;;;;;;;8.63;3.88;;;17.70;72.80;;;;;;5030158;28;20134;-73
2022/10/30 10:58:39;;;;;;;12.75;4.40;;;17.60;72.80;;;;;;5032946;28;20072;-73
2022/10/30 11:01:08;;;;;;;9.73;4.57;;;17.70;72.90;;;;;;5027129;28;20413;-73
2022/10/30 11:03:43;;;;;;;12.90;4.47;;;17.70;73.20;;;;;;5031777;28;20056;-72
2022/10/30 11:06:18;;;;;;;8.02;3.90;;;17.70;73.10;;;;;;5036531;28;20049;-72
2022/10/30 11:08:45;;;;;;;9.93;4.00;;;17.70;73.50;;;;;;5022319;28;20053;-72
2022/10/30 11:11:12;;;;;;;11.57;4.22;;;17.70;73.00;;;;;;5034368;28;20093;-73
2022/10/30 11:13:39;;;;;;;10.48;4.00;;;17.70;73.00;;;;;;5033108;28;20061;-73
2022/10/30 11:16:11;;;;;;;7.97;4.10;;;17.70;73.00;;;;;;5034959;28;20541;-73
2022/10/30 11:18:38;;;;;;;8.15;3.90;;;17.70;73.00;;;;;;5037528;28;20060;-71
2022/10/30 11:21:07;;;;;;;7.95;4.57;;;17.70;73.10;;;;;;5037150;28;20049;-72
2022/10/30 11:23:38;;;;;;;11.65;4.40;;;17.70;73.10;;;;;;5026676;28;20061;-72
2022/10/30 11:26:21;;;;;;;12.43;4.35;;;17.70;73.10;;;;;;5029489;28;20057;-73
2022/10/30 11:28:50;;;;;;;17.85;4.95;;;17.70;73.10;;;;;;5027441;28;20061;-73
2022/10/30 11:31:17;;;;;;;13.75;4.53;;;17.70;73.20;;;;;;5030047;28;20060;-73
2022/10/30 11:33:44;;;;;;;12.95;4.32;;;17.70;73.30;;;;;;5021956;28;20136;-72
2022/10/30 11:36:13;;;;;;;14.93;4.55;;;17.70;73.30;;;;;;5022907;28;20062;-72
2022/10/30 11:38:41;;;;;;;9.35;4.53;;;17.70;73.30;;;;;;5024743;28;20495;-72
2022/10/30 11:41:09;;;;;;;10.30;4.30;;;17.70;73.30;;;;;;5030748;28;20068;-72
2022/10/30 11:43:36;;;;;;;12.05;4.40;;;17.70;73.30;;;;;;5032270;28;20072;-72
2022/10/30 11:46:08;;;;;;;10.30;3.88;;;17.70;73.30;;;;;;5030816;28;20483;-73
2022/10/30 11:48:35;;;;;;;7.85;4.10;;;17.70;73.30;;;;;;5031700;28;20112;-73
2022/10/30 11:51:04;;;;;;;8.10;3.67;;;17.60;73.30;;;;;;5031824;28;20478;-73
2022/10/30 11:53:33;;;;;;;9.82;3.75;;;17.70;73.30;;;;;;5022027;28;20107;-73
2022/10/30 11:56:01;;;;;;;7.65;3.85;;;17.60;73.30;;;;;;5016275;28;20054;-73
2022/10/30 11:58:30;;;;;;;9.10;3.97;;;17.60;73.30;;;;;;5024428;28;20080;-72
2022/10/30 12:01:02;;;;;;;6.97;3.78;;;17.60;73.30;;;;;;5031274;28;20060;-72
2022/10/30 12:03:29;;;;;;;6.45;3.45;;;17.60;73.30;;;;;;5031247;28;20052;-72
2022/10/30 12:06:08;;;;;;;10.00;3.90;;;17.60;73.30;;;;;;5030806;28;20057;-72
2022/10/30 12:08:34;;;;;;;5.97;3.70;;;17.60;73.30;;;;;;5023182;28;20144;-72
2022/10/30 12:11:04;;;;;;;6.43;3.60;;;17.60;73.40;;;;;;5012614;28;20507;-72
2022/10/30 12:13:37;;;;;;;7.82;4.13;;;17.60;73.30;;;;;;5012621;28;20056;-72
2022/10/30 12:16:13;;;;;;;6.35;3.63;;;17.60;73.30;;;;;;5031558;28;20057;-73
2022/10/30 12:18:40;;;;;;;7.35;3.50;;;17.60;73.30;;;;;;5024255;28;20068;-72
2022/10/30 12:21:07;;;;;;;7.47;3.50;;;17.60;73.20;;;;;;5031038;28;20057;-73
2022/10/30 12:23:34;;;;;;;5.30;3.45;;;17.60;73.20;;;;;;5030368;28;20522;-73
2022/10/30 12:26:09;;;;;;;11.43;3.50;;;17.60;73.10;;;;;;5030250;28;20058;-73
2022/10/30 12:28:36;;;;;;;7.22;3.65;;;17.60;73.20;;;;;;5032317;28;20140;-73
2022/10/30 12:31:04;;;;;;;5.88;3.25;;;17.60;73.10;;;;;;5026771;28;20060;-73
2022/10/30 12:33:33;;;;;;;6.25;3.55;;;17.70;73.10;;;;;;5029568;28;20060;-73
2022/10/30 12:36:00;;;;;;;5.47;3.45;;;17.60;73.00;;;;;;5054011;28;20136;-73
2022/10/30 12:38:28;;;;;;;9.10;3.50;;;17.60;73.10;;;;;;5042001;28;20056;-73
2022/10/30 12:41:00;;;;;;;7.13;3.67;;;17.60;73.00;;;;;;5029452;28;20483;-73
2022/10/30 12:43:28;;;;;;;7.95;3.28;;;17.70;73.00;;;;;;5022706;28;20060;-74
2022/10/30 12:45:56;;;;;;;5.50;3.40;;;17.70;73.00;;;;;;5050494;28;20057;-74
2022/10/30 12:48:25;;;;;;;7.63;3.83;;;17.70;73.10;;;;;;5025509;28;20401;-73
2022/10/30 12:50:57;;;;;;;9.15;3.25;;;17.70;73.10;;;;;;5029050;28;20064;-74